sensor_id;sensor_type;location;lat;lon;timestamp;pressure;altitude;pressure_sealevel;temperature;humidity
12664;BME280;6396;58.490;15.528;2023-06-19T00:00:17;100861.94;;;17.28;100.00
12664;BME280;6396;58.490;15.528;2023-06-19T00:02:44;100770.66;;;16.67;100.00
12664;BME280;6396;58.490;15.528;2023-06-19T00:05:12;100903.84;;;17.26;100.00
12664;BME280;6396;58.490;15.528;2023-06-19T00:07:39;100861.84;;;17.30;100.00
12664;BME280;6396;58.490;15.528;2023-06-19T00:10:06;100785.38;;;16.57;100.00
12664;BME280;6396;58.490;15.528;2023-06-19T00:12:33;100871.09;;;17.23;100.00
12664;BME280;6396;58.490;15.528;2023-06-19T00:15:01;100732.44;;;16.50;100.00
12664;BME280;6396;58.490;15.528;2023-06-19T00:17:29;100625.41;;;15.86;100.00
12664;BME280;6396;58.490;15.528;2023-06-19T00:19:56;100578.44;;;15.28;100.00
12664;BME280;6396;58.490;15.528;2023-06-19T00:22:22;100770.84;;;16.82;100.00
12664;BME280;6396;58.490;15.528;2023-06-19T00:24:49;100850.38;;;17.28;100.00
12664;BME280;6396;58.490;15.528;2023-06-19T00:27:17;100698.13;;;16.24;100.00
12664;BME280;6396;58.490;15.528;2023-06-19T00:29:44;100883.09;;;17.14;100.00
12664;BME280;6396;58.490;15.528;2023-06-19T00:32:12;100486.97;;;14.93;100.00
12664;BME280;6396;58.490;15.528;2023-06-19T00:34:38;100756.84;;;16.41;100.00
12664;BME280;6396;58.490;15.528;2023-06-19T00:37:06;100852.16;;;17.10;100.00
12664;BME280;6396;58.490;15.528;2023-06-19T00:39:34;100705.41;;;16.20;100.00
12664;BME280;6396;58.490;15.528;2023-06-19T00:42:01;100516.03;;;15.16;100.00
12664;BME280;6396;58.490;15.528;2023-06-19T00:44:27;100576.50;;;15.31;100.00
12664;BME280;6396;58.490;15.528;2023-06-19T00:46:57;100868.63;;;17.18;100.00
12664;BME280;6396;58.490;15.528;2023-06-19T00:49:26;100861.94;;;17.10;100.00
12664;BME280;6396;58.490;15.528;2023-06-19T00:51:53;100716.72;;;16.07;100.00
12664;BME280;6396;58.490;15.528;2023-06-19T00:54:21;100812.50;;;16.67;100.00
12664;BME280;6396;58.490;15.528;2023-06-19T00:56:48;100860.34;;;17.06;100.00
12664;BME280;6396;58.490;15.528;2023-06-19T00:59:16;100801.81;;;16.67;100.00
12664;BME280;6396;58.490;15.528;2023-06-19T01:01:44;100856.44;;;17.13;100.00
12664;BME280;6396;58.490;15.528;2023-06-19T01:04:11;100736.09;;;16.29;100.00
12664;BME280;6396;58.490;15.528;2023-06-19T01:06:43;100915.41;;;17.08;100.00
12664;BME280;6396;58.490;15.528;2023-06-19T01:09:13;100910.22;;;17.05;100.00
12664;BME280;6396;58.490;15.528;2023-06-19T01:11:46;100267.56;;;13.53;100.00
12664;BME280;6396;58.490;15.528;2023-06-19T01:14:17;100849.91;;;17.01;100.00
12664;BME280;6396;58.490;15.528;2023-06-19T01:16:45;100722.91;;;16.26;100.00
12664;BME280;6396;58.490;15.528;2023-06-19T01:19:20;100842.88;;;17.00;100.00
12664;BME280;6396;58.490;15.528;2023-06-19T01:21:49;100482.88;;;14.66;100.00
12664;BME280;6396;58.490;15.528;2023-06-19T01:24:17;100559.66;;;15.31;100.00
12664;BME280;6396;58.490;15.528;2023-06-19T01:26:44;100652.38;;;15.79;100.00
12664;BME280;6396;58.490;15.528;2023-06-19T01:29:12;100686.16;;;15.97;100.00
12664;BME280;6396;58.490;15.528;2023-06-19T01:31:45;100825.31;;;16.59;100.00
12664;BME280;6396;58.490;15.528;2023-06-19T01:34:17;100689.88;;;15.93;100.00
12664;BME280;6396;58.490;15.528;2023-06-19T01:36:45;100840.56;;;16.93;100.00
12664;BME280;6396;58.490;15.528;2023-06-19T01:39:14;100836.22;;;16.90;100.00
12664;BME280;6396;58.490;15.528;2023-06-19T01:41:44;100635.44;;;15.61;100.00
12664;BME280;6396;58.490;15.528;2023-06-19T01:44:11;100842.28;;;16.94;100.00
12664;BME280;6396;58.490;15.528;2023-06-19T01:46:38;100844.22;;;16.90;100.00
12664;BME280;6396;58.490;15.528;2023-06-19T01:49:06;100884.97;;;16.94;100.00
12664;BME280;6396;58.490;15.528;2023-06-19T01:51:34;100558.09;;;15.27;100.00
12664;BME280;6396;58.490;15.528;2023-06-19T01:54:01;100726.81;;;16.19;100.00
12664;BME280;6396;58.490;15.528;2023-06-19T01:56:28;100878.19;;;16.87;100.00
12664;BME280;6396;58.490;15.528;2023-06-19T01:58:56;100849.97;;;16.83;100.00
12664;BME280;6396;58.490;15.528;2023-06-19T02:01:23;100726.00;;;16.17;100.00
12664;BME280;6396;58.490;15.528;2023-06-19T02:03:50;100722.06;;;15.88;100.00
12664;BME280;6396;58.490;15.528;2023-06-19T02:06:17;100600.84;;;15.42;100.00
12664;BME280;6396;58.490;15.528;2023-06-19T02:08:44;100402.72;;;14.38;100.00
12664;BME280;6396;58.490;15.528;2023-06-19T02:11:10;100816.13;;;16.46;100.00
12664;BME280;6396;58.490;15.528;2023-06-19T02:13:37;100705.69;;;15.77;100.00
12664;BME280;6396;58.490;15.528;2023-06-19T02:16:05;100663.19;;;15.76;100.00
12664;BME280;6396;58.490;15.528;2023-06-19T02:18:32;100510.50;;;14.82;100.00
12664;BME280;6396;58.490;15.528;2023-06-19T02:20:59;100545.38;;;15.15;100.00
12664;BME280;6396;58.490;15.528;2023-06-19T02:23:25;100639.97;;;15.59;100.00
12664;BME280;6396;58.490;15.528;2023-06-19T02:25:52;100870.00;;;16.91;100.00
12664;BME280;6396;58.490;15.528;2023-06-19T02:28:19;100867.47;;;16.88;100.00
12664;BME280;6396;58.490;15.528;2023-06-19T02:30:46;100786.00;;;16.25;100.00
12664;BME280;6396;58.490;15.528;2023-06-19T02:33:14;100727.94;;;16.13;100.00
12664;BME280;6396;58.490;15.528;2023-06-19T02:35:41;100887.88;;;16.89;100.00
12664;BME280;6396;58.490;15.528;2023-06-19T02:38:09;100883.75;;;16.82;100.00
12664;BME280;6396;58.490;15.528;2023-06-19T02:40:37;100821.50;;;16.64;100.00
12664;BME280;6396;58.490;15.528;2023-06-19T02:43:04;100790.47;;;16.43;100.00
12664;BME280;6396;58.490;15.528;2023-06-19T02:45:31;100851.97;;;16.78;100.00
12664;BME280;6396;58.490;15.528;2023-06-19T02:47:58;100829.34;;;16.49;100.00
12664;BME280;6396;58.490;15.528;2023-06-19T02:50:26;100766.78;;;16.19;100.00
12664;BME280;6396;58.490;15.528;2023-06-19T02:52:52;100403.63;;;14.17;100.00
12664;BME280;6396;58.490;15.528;2023-06-19T02:55:19;100589.97;;;15.08;100.00
12664;BME280;6396;58.490;15.528;2023-06-19T02:57:46;100849.25;;;16.79;100.00
12664;BME280;6396;58.490;15.528;2023-06-19T03:00:13;100465.56;;;14.57;100.00
12664;BME280;6396;58.490;15.528;2023-06-19T03:02:40;100312.25;;;13.82;100.00
12664;BME280;6396;58.490;15.528;2023-06-19T03:05:09;100849.09;;;16.82;100.00
12664;BME280;6396;58.490;15.528;2023-06-19T03:07:38;100647.53;;;15.29;100.00
12664;BME280;6396;58.490;15.528;2023-06-19T03:10:05;100798.59;;;16.03;100.00
12664;BME280;6396;58.490;15.528;2023-06-19T03:12:32;100850.81;;;16.83;100.00
12664;BME280;6396;58.490;15.528;2023-06-19T03:14:59;100748.34;;;16.14;100.00
12664;BME280;6396;58.490;15.528;2023-06-19T03:17:25;100856.28;;;16.80;100.00
12664;BME280;6396;58.490;15.528;2023-06-19T03:19:52;100849.88;;;16.84;100.00
12664;BME280;6396;58.490;15.528;2023-06-19T03:22:19;100856.00;;;16.86;100.00
12664;BME280;6396;58.490;15.528;2023-06-19T03:24:48;100838.25;;;16.85;100.00
12664;BME280;6396;58.490;15.528;2023-06-19T03:27:14;100854.25;;;16.85;100.00
12664;BME280;6396;58.490;15.528;2023-06-19T03:29:41;100910.19;;;16.87;100.00
12664;BME280;6396;58.490;15.528;2023-06-19T03:32:08;100436.56;;;14.33;100.00
12664;BME280;6396;58.490;15.528;2023-06-19T03:34:34;100849.97;;;16.83;100.00
12664;BME280;6396;58.490;15.528;2023-06-19T03:37:01;100760.72;;;15.97;100.00
12664;BME280;6396;58.490;15.528;2023-06-19T03:39:28;100781.16;;;16.15;100.00
12664;BME280;6396;58.490;15.528;2023-06-19T03:41:56;100840.22;;;16.82;100.00
12664;BME280;6396;58.490;15.528;2023-06-19T03:44:23;100843.09;;;16.77;100.00
12664;BME280;6396;58.490;15.528;2023-06-19T03:46:49;100835.31;;;16.72;100.00
12664;BME280;6396;58.490;15.528;2023-06-19T03:49:16;100687.50;;;15.87;100.00
12664;BME280;6396;58.490;15.528;2023-06-19T03:51:43;100846.78;;;16.74;100.00
12664;BME280;6396;58.490;15.528;2023-06-19T03:54:10;100700.38;;;15.77;100.00
12664;BME280;6396;58.490;15.528;2023-06-19T03:56:37;100857.53;;;16.73;100.00
12664;BME280;6396;58.490;15.528;2023-06-19T03:59:06;100756.28;;;16.16;100.00
12664;BME280;6396;58.490;15.528;2023-06-19T04:01:33;100786.50;;;16.15;100.00
12664;BME280;6396;58.490;15.528;2023-06-19T04:03:59;100695.41;;;15.70;100.00
12664;BME280;6396;58.490;15.528;2023-06-19T04:06:26;100616.06;;;15.00;100.00
12664;BME280;6396;58.490;15.528;2023-06-19T04:08:53;100742.72;;;16.02;100.00
12664;BME280;6396;58.490;15.528;2023-06-19T04:11:19;100689.72;;;15.58;100.00
12664;BME280;6396;58.490;15.528;2023-06-19T04:13:46;100844.53;;;16.65;100.00
12664;BME280;6396;58.490;15.528;2023-06-19T04:16:15;100713.75;;;15.76;100.00
12664;BME280;6396;58.490;15.528;2023-06-19T04:18:41;100787.56;;;16.49;100.00
12664;BME280;6396;58.490;15.528;2023-06-19T04:21:08;100807.06;;;16.50;100.00
12664;BME280;6396;58.490;15.528;2023-06-19T04:23:35;100707.00;;;15.87;100.00
12664;BME280;6396;58.490;15.528;2023-06-19T04:26:02;100853.53;;;16.82;100.00
12664;BME280;6396;58.490;15.528;2023-06-19T04:28:29;100841.44;;;16.74;100.00
12664;BME280;6396;58.490;15.528;2023-06-19T04:30:55;100592.13;;;15.00;100.00
12664;BME280;6396;58.490;15.528;2023-06-19T04:33:27;100804.94;;;16.38;100.00
12664;BME280;6396;58.490;15.528;2023-06-19T04:35:54;100643.78;;;15.53;100.00
12664;BME280;6396;58.490;15.528;2023-06-19T04:38:21;100813.38;;;16.29;100.00
12664;BME280;6396;58.490;15.528;2023-06-19T04:40:50;100852.97;;;16.75;100.00
12664;BME280;6396;58.490;15.528;2023-06-19T04:43:17;100851.38;;;16.71;100.00
12664;BME280;6396;58.490;15.528;2023-06-19T04:45:44;100790.69;;;16.20;100.00
12664;BME280;6396;58.490;15.528;2023-06-19T04:48:11;100841.09;;;16.63;100.00
12664;BME280;6396;58.490;15.528;2023-06-19T04:50:39;100791.84;;;16.33;100.00
12664;BME280;6396;58.490;15.528;2023-06-19T04:53:05;100886.34;;;16.65;100.00
12664;BME280;6396;58.490;15.528;2023-06-19T04:55:32;100870.63;;;16.59;100.00
12664;BME280;6396;58.490;15.528;2023-06-19T04:57:59;100761.53;;;15.99;100.00
12664;BME280;6396;58.490;15.528;2023-06-19T05:00:26;100607.28;;;15.37;100.00
12664;BME280;6396;58.490;15.528;2023-06-19T05:02:53;100621.88;;;15.28;100.00
12664;BME280;6396;58.490;15.528;2023-06-19T05:05:26;100863.94;;;16.69;100.00
12664;BME280;6396;58.490;15.528;2023-06-19T05:07:54;100863.16;;;16.67;100.00
12664;BME280;6396;58.490;15.528;2023-06-19T05:10:21;100782.50;;;16.25;100.00
12664;BME280;6396;58.490;15.528;2023-06-19T05:12:48;100852.25;;;16.71;100.00
12664;BME280;6396;58.490;15.528;2023-06-19T05:15:14;100859.03;;;16.79;100.00
12664;BME280;6396;58.490;15.528;2023-06-19T05:17:41;100863.50;;;16.78;100.00
12664;BME280;6396;58.490;15.528;2023-06-19T05:20:14;100858.25;;;16.77;100.00
12664;BME280;6396;58.490;15.528;2023-06-19T05:22:52;100825.63;;;16.53;100.00
12664;BME280;6396;58.490;15.528;2023-06-19T05:25:20;100620.13;;;15.27;100.00
12664;BME280;6396;58.490;15.528;2023-06-19T05:27:47;100442.00;;;14.30;100.00
12664;BME280;6396;58.490;15.528;2023-06-19T05:30:14;100884.19;;;16.92;100.00
12664;BME280;6396;58.490;15.528;2023-06-19T05:32:41;100925.84;;;16.94;100.00
12664;BME280;6396;58.490;15.528;2023-06-19T05:35:08;100343.50;;;13.76;100.00
12664;BME280;6396;58.490;15.528;2023-06-19T05:37:35;100875.13;;;17.13;100.00
12664;BME280;6396;58.490;15.528;2023-06-19T05:40:04;100867.19;;;17.11;100.00
12664;BME280;6396;58.490;15.528;2023-06-19T05:42:32;100750.56;;;16.60;100.00
12664;BME280;6396;58.490;15.528;2023-06-19T05:44:59;100893.88;;;17.30;100.00
12664;BME280;6396;58.490;15.528;2023-06-19T05:47:25;100886.94;;;17.26;100.00
12664;BME280;6396;58.490;15.528;2023-06-19T05:49:52;100854.53;;;16.98;100.00
12664;BME280;6396;58.490;15.528;2023-06-19T05:52:19;100853.81;;;16.94;100.00
12664;BME280;6396;58.490;15.528;2023-06-19T05:54:46;100504.38;;;15.00;100.00
12664;BME280;6396;58.490;15.528;2023-06-19T05:57:13;100848.94;;;16.85;100.00
12664;BME280;6396;58.490;15.528;2023-06-19T05:59:42;100835.81;;;16.81;100.00
12664;BME280;6396;58.490;15.528;2023-06-19T06:02:09;100681.94;;;16.10;100.00
12664;BME280;6396;58.490;15.528;2023-06-19T06:04:36;100800.47;;;16.94;100.00
12664;BME280;6396;58.490;15.528;2023-06-19T06:07:03;100884.19;;;17.46;100.00
12664;BME280;6396;58.490;15.528;2023-06-19T06:09:30;100751.63;;;16.75;100.00
12664;BME280;6396;58.490;15.528;2023-06-19T06:11:58;100880.91;;;17.58;100.00
12664;BME280;6396;58.490;15.528;2023-06-19T06:14:25;100816.47;;;16.94;100.00
12664;BME280;6396;58.490;15.528;2023-06-19T06:16:53;100875.78;;;17.53;100.00
12664;BME280;6396;58.490;15.528;2023-06-19T06:19:20;100882.00;;;17.54;100.00
12664;BME280;6396;58.490;15.528;2023-06-19T06:21:48;100841.66;;;17.24;100.00
12664;BME280;6396;58.490;15.528;2023-06-19T06:24:14;100676.53;;;16.11;100.00
12664;BME280;6396;58.490;15.528;2023-06-19T06:26:41;100759.88;;;16.70;100.00
12664;BME280;6396;58.490;15.528;2023-06-19T06:29:08;100632.31;;;15.90;100.00
12664;BME280;6396;58.490;15.528;2023-06-19T06:31:34;100672.44;;;16.23;100.00
12664;BME280;6396;58.490;15.528;2023-06-19T06:34:03;100889.56;;;17.63;100.00
12664;BME280;6396;58.490;15.528;2023-06-19T06:36:30;100775.19;;;16.84;100.00
12664;BME280;6396;58.490;15.528;2023-06-19T06:38:57;100519.41;;;15.38;100.00
12664;BME280;6396;58.490;15.528;2023-06-19T06:41:23;100907.47;;;17.61;100.00
12664;BME280;6396;58.490;15.528;2023-06-19T06:43:50;100912.88;;;17.59;100.00
12664;BME280;6396;58.490;15.528;2023-06-19T06:46:17;100912.31;;;17.53;100.00
12664;BME280;6396;58.490;15.528;2023-06-19T06:48:43;100830.88;;;17.09;100.00
12664;BME280;6396;58.490;15.528;2023-06-19T06:51:12;100938.16;;;17.52;100.00
12664;BME280;6396;58.490;15.528;2023-06-19T06:53:38;100905.41;;;17.66;100.00
12664;BME280;6396;58.490;15.528;2023-06-19T06:56:05;100791.53;;;16.95;100.00
12664;BME280;6396;58.490;15.528;2023-06-19T06:58:32;100923.50;;;17.78;100.00
12664;BME280;6396;58.490;15.528;2023-06-19T07:00:58;100705.88;;;16.65;100.00
12664;BME280;6396;58.490;15.528;2023-06-19T07:03:25;100611.00;;;15.90;100.00
12664;BME280;6396;58.490;15.528;2023-06-19T07:05:54;100923.69;;;17.56;100.00
12664;BME280;6396;58.490;15.528;2023-06-19T07:08:22;100663.78;;;16.36;100.00
12664;BME280;6396;58.490;15.528;2023-06-19T07:10:50;100815.41;;;17.15;100.00
12664;BME280;6396;58.490;15.528;2023-06-19T07:13:16;100690.50;;;16.53;100.00
12664;BME280;6396;58.490;15.528;2023-06-19T07:15:43;100818.25;;;17.29;100.00
12664;BME280;6396;58.490;15.528;2023-06-19T07:18:10;100552.66;;;15.67;100.00
12664;BME280;6396;58.490;15.528;2023-06-19T07:20:37;100417.84;;;14.93;100.00
12664;BME280;6396;58.490;15.528;2023-06-19T07:23:03;100908.81;;;17.87;100.00
12664;BME280;6396;58.490;15.528;2023-06-19T07:25:32;100915.44;;;17.97;100.00
12664;BME280;6396;58.490;15.528;2023-06-19T07:27:59;100789.69;;;17.14;100.00
12664;BME280;6396;58.490;15.528;2023-06-19T07:30:26;100676.31;;;16.53;100.00
12664;BME280;6396;58.490;15.528;2023-06-19T07:32:53;100782.94;;;17.07;100.00
12664;BME280;6396;58.490;15.528;2023-06-19T07:35:20;100922.56;;;17.96;100.00
12664;BME280;6396;58.490;15.528;2023-06-19T07:37:46;100733.50;;;16.64;100.00
12664;BME280;6396;58.490;15.528;2023-06-19T07:40:14;100731.25;;;16.74;100.00
12664;BME280;6396;58.490;15.528;2023-06-19T07:42:42;100899.31;;;17.98;100.00
12664;BME280;6396;58.490;15.528;2023-06-19T07:45:11;100916.03;;;18.02;100.00
12664;BME280;6396;58.490;15.528;2023-06-19T07:47:38;100688.94;;;16.66;100.00
12664;BME280;6396;58.490;15.528;2023-06-19T07:50:05;100934.13;;;17.97;100.00
12664;BME280;6396;58.490;15.528;2023-06-19T07:52:32;100923.09;;;18.03;100.00
12664;BME280;6396;58.490;15.528;2023-06-19T07:54:59;100915.44;;;17.97;100.00
12664;BME280;6396;58.490;15.528;2023-06-19T07:57:26;100827.69;;;17.19;100.00
12664;BME280;6396;58.490;15.528;2023-06-19T07:59:54;100812.38;;;17.23;100.00
12664;BME280;6396;58.490;15.528;2023-06-19T08:02:21;100810.34;;;17.45;100.00
12664;BME280;6396;58.490;15.528;2023-06-19T08:04:48;100909.34;;;18.10;100.00
12664;BME280;6396;58.490;15.528;2023-06-19T08:07:15;100781.25;;;17.05;100.00
12664;BME280;6396;58.490;15.528;2023-06-19T08:09:42;100797.69;;;17.31;100.00
12664;BME280;6396;58.490;15.528;2023-06-19T08:12:09;100962.94;;;18.07;100.00
12664;BME280;6396;58.490;15.528;2023-06-19T08:14:35;100626.78;;;16.30;100.00
12664;BME280;6396;58.490;15.528;2023-06-19T08:17:05;100929.41;;;18.02;100.00
12664;BME280;6396;58.490;15.528;2023-06-19T08:19:32;100953.06;;;18.09;100.00
12664;BME280;6396;58.490;15.528;2023-06-19T08:21:59;100936.72;;;18.15;100.00
12664;BME280;6396;58.490;15.528;2023-06-19T08:24:28;100660.31;;;16.34;100.00
12664;BME280;6396;58.490;15.528;2023-06-19T08:26:55;100770.03;;;16.98;100.00
12664;BME280;6396;58.490;15.528;2023-06-19T08:29:22;100958.97;;;18.16;100.00
12664;BME280;6396;58.490;15.528;2023-06-19T08:31:49;100934.91;;;18.16;100.00
12664;BME280;6396;58.490;15.528;2023-06-19T08:34:17;100939.03;;;18.21;100.00
12664;BME280;6396;58.490;15.528;2023-06-19T08:36:43;100992.59;;;18.20;100.00
12664;BME280;6396;58.490;15.528;2023-06-19T08:39:10;100812.13;;;17.27;100.00
12664;BME280;6396;58.490;15.528;2023-06-19T08:41:38;100951.66;;;18.19;100.00
12664;BME280;6396;58.490;15.528;2023-06-19T08:44:06;100732.72;;;16.80;100.00
12664;BME280;6396;58.490;15.528;2023-06-19T08:46:33;100928.59;;;18.17;100.00
12664;BME280;6396;58.490;15.528;2023-06-19T08:49:02;100929.31;;;18.20;100.00
12664;BME280;6396;58.490;15.528;2023-06-19T08:51:33;100690.66;;;16.67;100.00
12664;BME280;6396;58.490;15.528;2023-06-19T08:54:01;100964.84;;;18.22;100.00
12664;BME280;6396;58.490;15.528;2023-06-19T08:56:29;100942.41;;;18.25;100.00
12664;BME280;6396;58.490;15.528;2023-06-19T08:59:07;100759.13;;;17.20;100.00
12664;BME280;6396;58.490;15.528;2023-06-19T09:01:34;100938.81;;;18.26;100.00
12664;BME280;6396;58.490;15.528;2023-06-19T09:04:08;100838.41;;;17.53;100.00
12664;BME280;6396;58.490;15.528;2023-06-19T09:06:36;100944.56;;;18.18;100.00
12664;BME280;6396;58.490;15.528;2023-06-19T09:09:04;100718.38;;;16.65;100.00
12664;BME280;6396;58.490;15.528;2023-06-19T09:11:35;100930.81;;;18.09;100.00
12664;BME280;6396;58.490;15.528;2023-06-19T09:14:05;100847.53;;;17.66;100.00
12664;BME280;6396;58.490;15.528;2023-06-19T09:16:36;100945.97;;;18.25;100.00
12664;BME280;6396;58.490;15.528;2023-06-19T09:19:04;100356.84;;;14.90;100.00
12664;BME280;6396;58.490;15.528;2023-06-19T09:21:31;100936.75;;;18.48;100.00
12664;BME280;6396;58.490;15.528;2023-06-19T09:24:04;100900.16;;;18.16;100.00
12664;BME280;6396;58.490;15.528;2023-06-19T09:26:31;100592.31;;;16.79;100.00
12664;BME280;6396;58.490;15.528;2023-06-19T09:28:57;100807.41;;;18.01;100.00
12664;BME280;6396;58.490;15.528;2023-06-19T09:31:33;100801.56;;;18.58;100.00
12664;BME280;6396;58.490;15.528;2023-06-19T09:34:00;100911.16;;;19.39;100.00
12664;BME280;6396;58.490;15.528;2023-06-19T09:36:27;100939.94;;;19.80;100.00
12664;BME280;6396;58.490;15.528;2023-06-19T09:38:56;100840.59;;;18.93;100.00
12664;BME280;6396;58.490;15.528;2023-06-19T09:41:25;100943.53;;;19.65;100.00
12664;BME280;6396;58.490;15.528;2023-06-19T09:43:55;100404.03;;;15.92;100.00
12664;BME280;6396;58.490;15.528;2023-06-19T09:46:25;100931.09;;;19.33;100.00
12664;BME280;6396;58.490;15.528;2023-06-19T09:48:54;100883.41;;;19.09;100.00
12664;BME280;6396;58.490;15.528;2023-06-19T09:51:30;101002.66;;;19.47;100.00
12664;BME280;6396;58.490;15.528;2023-06-19T09:53:58;100789.88;;;18.28;100.00
12664;BME280;6396;58.490;15.528;2023-06-19T09:56:27;100748.91;;;18.12;100.00
12664;BME280;6396;58.490;15.528;2023-06-19T09:58:57;100834.56;;;18.26;100.00
12664;BME280;6396;58.490;15.528;2023-06-19T10:01:26;100953.88;;;19.09;100.00
12664;BME280;6396;58.490;15.528;2023-06-19T10:04:02;100598.94;;;17.04;100.00
12664;BME280;6396;58.490;15.528;2023-06-19T10:06:30;100528.31;;;16.27;100.00
12664;BME280;6396;58.490;15.528;2023-06-19T10:09:05;100954.31;;;19.02;100.00
12664;BME280;6396;58.490;15.528;2023-06-19T10:11:45;100666.19;;;17.28;100.00
12664;BME280;6396;58.490;15.528;2023-06-19T10:14:13;100568.16;;;16.64;100.00
12664;BME280;6396;58.490;15.528;2023-06-19T10:16:43;100742.72;;;17.78;100.00
12664;BME280;6396;58.490;15.528;2023-06-19T10:19:14;100948.63;;;19.08;100.00
12664;BME280;6396;58.490;15.528;2023-06-19T10:21:46;100933.56;;;19.05;100.00
12664;BME280;6396;58.490;15.528;2023-06-19T10:24:16;100949.69;;;19.21;100.00
12664;BME280;6396;58.490;15.528;2023-06-19T10:26:57;100840.34;;;18.51;100.00
12664;BME280;6396;58.490;15.528;2023-06-19T10:29:25;100711.31;;;17.66;100.00
12664;BME280;6396;58.490;15.528;2023-06-19T10:31:55;100751.03;;;18.05;100.00
12664;BME280;6396;58.490;15.528;2023-06-19T10:34:22;100835.84;;;18.98;100.00
12664;BME280;6396;58.490;15.528;2023-06-19T10:36:59;100945.25;;;19.51;100.00
12664;BME280;6396;58.490;15.528;2023-06-19T10:39:25;100797.88;;;18.45;100.00
12664;BME280;6396;58.490;15.528;2023-06-19T10:41:52;100819.69;;;18.53;100.00
12664;BME280;6396;58.490;15.528;2023-06-19T10:44:23;100830.47;;;18.67;100.00
12664;BME280;6396;58.490;15.528;2023-06-19T10:46:52;100956.97;;;19.34;100.00
12664;BME280;6396;58.490;15.528;2023-06-19T10:49:19;100961.63;;;19.31;100.00
12664;BME280;6396;58.490;15.528;2023-06-19T10:51:48;100959.53;;;19.51;100.00
12664;BME280;6396;58.490;15.528;2023-06-19T10:54:15;100813.81;;;18.77;100.00
12664;BME280;6396;58.490;15.528;2023-06-19T10:56:42;100789.56;;;18.49;100.00
12664;BME280;6396;58.490;15.528;2023-06-19T10:59:10;100778.72;;;18.52;100.00
12664;BME280;6396;58.490;15.528;2023-06-19T11:01:40;100960.81;;;19.44;100.00
12664;BME280;6396;58.490;15.528;2023-06-19T11:04:08;100812.25;;;18.42;100.00
12664;BME280;6396;58.490;15.528;2023-06-19T11:06:35;100955.28;;;19.47;100.00
12664;BME280;6396;58.490;15.528;2023-06-19T11:09:02;100645.66;;;17.62;100.00
12664;BME280;6396;58.490;15.528;2023-06-19T11:11:37;100948.03;;;19.49;100.00
12664;BME280;6396;58.490;15.528;2023-06-19T11:14:04;100798.06;;;18.73;100.00
12664;BME280;6396;58.490;15.528;2023-06-19T11:16:31;100745.91;;;18.33;100.00
12664;BME280;6396;58.490;15.528;2023-06-19T11:19:00;100867.59;;;19.35;100.00
12664;BME280;6396;58.490;15.528;2023-06-19T11:21:30;100944.25;;;19.83;100.00
12664;BME280;6396;58.490;15.528;2023-06-19T11:23:58;100941.13;;;19.90;100.00
12664;BME280;6396;58.490;15.528;2023-06-19T11:26:25;100775.03;;;19.00;100.00
12664;BME280;6396;58.490;15.528;2023-06-19T11:28:53;100934.41;;;20.13;100.00
12664;BME280;6396;58.490;15.528;2023-06-19T11:31:24;100831.63;;;19.55;100.00
12664;BME280;6396;58.490;15.528;2023-06-19T11:33:56;100596.19;;;18.33;100.00
12664;BME280;6396;58.490;15.528;2023-06-19T11:36:25;100682.88;;;18.90;100.00
12664;BME280;6396;58.490;15.528;2023-06-19T11:38:52;100939.97;;;20.54;100.00
12664;BME280;6396;58.490;15.528;2023-06-19T11:41:25;100889.63;;;20.29;100.00
12664;BME280;6396;58.490;15.528;2023-06-19T11:43:58;100944.28;;;20.98;100.00
12664;BME280;6396;58.490;15.528;2023-06-19T11:46:28;100935.69;;;21.34;100.00
12664;BME280;6396;58.490;15.528;2023-06-19T11:48:56;100916.88;;;21.34;100.00
12664;BME280;6396;58.490;15.528;2023-06-19T11:51:34;100876.25;;;20.84;100.00
12664;BME280;6396;58.490;15.528;2023-06-19T11:54:01;100963.78;;;21.43;100.00
12664;BME280;6396;58.490;15.528;2023-06-19T11:56:28;100575.31;;;19.41;100.00
12664;BME280;6396;58.490;15.528;2023-06-19T11:58:55;100621.47;;;19.87;100.00
12664;BME280;6396;58.490;15.528;2023-06-19T12:01:22;100795.03;;;20.94;100.00
12664;BME280;6396;58.490;15.528;2023-06-19T12:03:48;100558.72;;;19.63;100.00
12664;BME280;6396;58.490;15.528;2023-06-19T12:06:16;100368.72;;;18.22;100.00
12664;BME280;6396;58.490;15.528;2023-06-19T12:08:45;100916.97;;;21.86;100.00
12664;BME280;6396;58.490;15.528;2023-06-19T12:11:12;100502.44;;;19.63;100.00
12664;BME280;6396;58.490;15.528;2023-06-19T12:13:40;100877.22;;;21.77;100.00
12664;BME280;6396;58.490;15.528;2023-06-19T12:16:07;100642.00;;;20.29;100.00
12664;BME280;6396;58.490;15.528;2023-06-19T12:18:33;100834.47;;;21.47;100.00
12664;BME280;6396;58.490;15.528;2023-06-19T12:21:00;100921.53;;;22.10;100.00
12664;BME280;6396;58.490;15.528;2023-06-19T12:23:27;100586.56;;;20.15;100.00
12664;BME280;6396;58.490;15.528;2023-06-19T12:25:55;100924.78;;;22.15;100.00
12664;BME280;6396;58.490;15.528;2023-06-19T12:28:22;100927.13;;;22.07;100.00
12664;BME280;6396;58.490;15.528;2023-06-19T12:30:51;100614.72;;;20.22;100.00
12664;BME280;6396;58.490;15.528;2023-06-19T12:33:18;100775.59;;;21.18;100.00
12664;BME280;6396;58.490;15.528;2023-06-19T12:35:46;100904.06;;;21.91;100.00
12664;BME280;6396;58.490;15.528;2023-06-19T12:38:13;100754.56;;;20.97;100.00
12664;BME280;6396;58.490;15.528;2023-06-19T12:40:40;100900.94;;;21.84;100.00
12664;BME280;6396;58.490;15.528;2023-06-19T12:43:08;100899.78;;;21.88;100.00